sensor_id;sensor_type;location;lat;lon;timestamp;P1;durP1;ratioP1;P2;durP2;ratioP2
17228;SDS011;8731;50.364;8.958;2023-05-14T00:02:31;8.70;;;5.03;;
17228;SDS011;8731;50.364;8.958;2023-05-14T00:06:53;6.23;;;4.57;;
17228;SDS011;8731;50.364;8.958;2023-05-14T00:11:15;6.73;;;4.70;;
17228;SDS011;8731;50.364;8.958;2023-05-14T00:15:39;10.03;;;4.83;;
17228;SDS011;8731;50.364;8.958;2023-05-14T00:20:02;5.67;;;4.83;;
17228;SDS011;8731;50.364;8.958;2023-05-14T00:24:26;7.07;;;5.10;;
17228;SDS011;8731;50.364;8.958;2023-05-14T00:28:48;4.90;;;4.40;;
17228;SDS011;8731;50.364;8.958;2023-05-14T00:33:12;8.23;;;4.80;;
17228;SDS011;8731;50.364;8.958;2023-05-14T00:37:34;8.53;;;4.70;;
17228;SDS011;8731;50.364;8.958;2023-05-14T00:41:57;6.90;;;5.27;;
17228;SDS011;8731;50.364;8.958;2023-05-14T00:46:20;5.40;;;4.73;;
17228;SDS011;8731;50.364;8.958;2023-05-14T00:50:45;5.37;;;4.87;;
17228;SDS011;8731;50.364;8.958;2023-05-14T00:55:09;8.20;;;5.63;;
17228;SDS011;8731;50.364;8.958;2023-05-14T00:59:35;5.43;;;4.93;;
17228;SDS011;8731;50.364;8.958;2023-05-14T01:04:00;5.10;;;4.60;;
17228;SDS011;8731;50.364;8.958;2023-05-14T01:08:31;6.87;;;4.43;;
17228;SDS011;8731;50.364;8.958;2023-05-14T01:13:07;4.90;;;4.50;;
17228;SDS011;8731;50.364;8.958;2023-05-14T01:17:41;7.27;;;5.13;;
17228;SDS011;8731;50.364;8.958;2023-05-14T01:22:10;5.70;;;4.83;;
17228;SDS011;8731;50.364;8.958;2023-05-14T01:26:33;5.90;;;5.30;;
17228;SDS011;8731;50.364;8.958;2023-05-14T01:30:56;6.90;;;5.40;;
17228;SDS011;8731;50.364;8.958;2023-05-14T01:35:28;7.33;;;5.33;;
17228;SDS011;8731;50.364;8.958;2023-05-14T01:39:53;7.40;;;4.80;;
17228;SDS011;8731;50.364;8.958;2023-05-14T01:44:17;6.07;;;4.97;;
17228;SDS011;8731;50.364;8.958;2023-05-14T01:48:41;6.47;;;4.80;;
17228;SDS011;8731;50.364;8.958;2023-05-14T01:53:03;5.77;;;4.70;;
17228;SDS011;8731;50.364;8.958;2023-05-14T01:57:27;6.30;;;4.53;;
17228;SDS011;8731;50.364;8.958;2023-05-14T02:01:49;5.73;;;5.23;;
17228;SDS011;8731;50.364;8.958;2023-05-14T02:06:12;5.93;;;5.40;;
17228;SDS011;8731;50.364;8.958;2023-05-14T02:10:34;6.90;;;5.10;;
17228;SDS011;8731;50.364;8.958;2023-05-14T02:14:58;5.97;;;5.00;;
17228;SDS011;8731;50.364;8.958;2023-05-14T02:19:21;5.57;;;4.97;;
17228;SDS011;8731;50.364;8.958;2023-05-14T02:23:43;6.27;;;5.20;;
17228;SDS011;8731;50.364;8.958;2023-05-14T02:28:07;8.60;;;5.30;;
17228;SDS011;8731;50.364;8.958;2023-05-14T02:32:31;9.30;;;5.97;;
17228;SDS011;8731;50.364;8.958;2023-05-14T02:36:53;5.67;;;5.17;;
17228;SDS011;8731;50.364;8.958;2023-05-14T02:41:16;5.70;;;5.03;;
17228;SDS011;8731;50.364;8.958;2023-05-14T02:45:38;6.00;;;4.20;;
17228;SDS011;8731;50.364;8.958;2023-05-14T02:50:02;6.60;;;4.37;;
17228;SDS011;8731;50.364;8.958;2023-05-14T02:54:25;8.60;;;5.00;;
17228;SDS011;8731;50.364;8.958;2023-05-14T02:58:48;7.60;;;4.70;;
17228;SDS011;8731;50.364;8.958;2023-05-14T03:03:10;4.67;;;4.20;;
17228;SDS011;8731;50.364;8.958;2023-05-14T03:07:34;5.20;;;4.70;;
17228;SDS011;8731;50.364;8.958;2023-05-14T03:11:56;4.87;;;4.23;;
17228;SDS011;8731;50.364;8.958;2023-05-14T03:16:19;4.57;;;3.90;;
17228;SDS011;8731;50.364;8.958;2023-05-14T03:20:41;3.83;;;3.50;;
17228;SDS011;8731;50.364;8.958;2023-05-14T03:25:05;4.67;;;4.00;;
17228;SDS011;8731;50.364;8.958;2023-05-14T03:29:29;4.87;;;4.07;;
17228;SDS011;8731;50.364;8.958;2023-05-14T03:33:51;7.43;;;4.00;;
17228;SDS011;8731;50.364;8.958;2023-05-14T03:38:14;4.70;;;4.13;;
17228;SDS011;8731;50.364;8.958;2023-05-14T03:42:37;6.87;;;4.20;;
17228;SDS011;8731;50.364;8.958;2023-05-14T03:47:00;4.77;;;3.80;;
17228;SDS011;8731;50.364;8.958;2023-05-14T03:51:22;5.23;;;4.07;;
17228;SDS011;8731;50.364;8.958;2023-05-14T03:55:45;3.83;;;3.33;;
17228;SDS011;8731;50.364;8.958;2023-05-14T04:00:09;3.40;;;3.10;;
17228;SDS011;8731;50.364;8.958;2023-05-14T04:04:39;5.33;;;4.93;;
17228;SDS011;8731;50.364;8.958;2023-05-14T04:09:01;6.53;;;3.13;;
17228;SDS011;8731;50.364;8.958;2023-05-14T04:13:24;5.23;;;4.10;;
17228;SDS011;8731;50.364;8.958;2023-05-14T04:17:48;4.07;;;3.77;;
17228;SDS011;8731;50.364;8.958;2023-05-14T04:22:11;4.80;;;4.17;;
17228;SDS011;8731;50.364;8.958;2023-05-14T04:26:33;4.17;;;3.80;;
17228;SDS011;8731;50.364;8.958;2023-05-14T04:30:55;4.40;;;4.00;;
17228;SDS011;8731;50.364;8.958;2023-05-14T04:35:19;6.03;;;4.23;;
17228;SDS011;8731;50.364;8.958;2023-05-14T04:39:42;4.03;;;3.70;;
17228;SDS011;8731;50.364;8.958;2023-05-14T04:44:04;5.53;;;3.97;;
17228;SDS011;8731;50.364;8.958;2023-05-14T04:48:27;4.40;;;4.00;;
17228;SDS011;8731;50.364;8.958;2023-05-14T04:52:50;5.10;;;4.60;;
17228;SDS011;8731;50.364;8.958;2023-05-14T04:57:14;6.43;;;4.37;;
17228;SDS011;8731;50.364;8.958;2023-05-14T05:01:37;6.60;;;4.77;;
17228;SDS011;8731;50.364;8.958;2023-05-14T05:05:59;4.73;;;4.30;;
17228;SDS011;8731;50.364;8.958;2023-05-14T05:10:23;4.50;;;4.07;;
17228;SDS011;8731;50.364;8.958;2023-05-14T05:14:45;5.30;;;4.67;;
17228;SDS011;8731;50.364;8.958;2023-05-14T05:19:08;5.67;;;4.57;;
17228;SDS011;8731;50.364;8.958;2023-05-14T05:23:30;4.93;;;4.40;;
17228;SDS011;8731;50.364;8.958;2023-05-14T05:27:54;4.47;;;4.07;;
17228;SDS011;8731;50.364;8.958;2023-05-14T05:32:16;6.37;;;4.20;;
17228;SDS011;8731;50.364;8.958;2023-05-14T05:36:38;5.43;;;4.10;;
17228;SDS011;8731;50.364;8.958;2023-05-14T05:41:01;4.70;;;4.20;;
17228;SDS011;8731;50.364;8.958;2023-05-14T05:45:24;4.23;;;3.93;;
17228;SDS011;8731;50.364;8.958;2023-05-14T05:49:47;3.50;;;3.20;;
17228;SDS011;8731;50.364;8.958;2023-05-14T05:54:09;4.77;;;3.60;;
17228;SDS011;8731;50.364;8.958;2023-05-14T05:58:32;4.63;;;3.50;;
17228;SDS011;8731;50.364;8.958;2023-05-14T06:02:56;5.17;;;4.40;;
17228;SDS011;8731;50.364;8.958;2023-05-14T06:07:18;4.10;;;3.70;;
17228;SDS011;8731;50.364;8.958;2023-05-14T06:11:40;6.23;;;4.37;;
17228;SDS011;8731;50.364;8.958;2023-05-14T06:16:03;5.97;;;3.97;;
17228;SDS011;8731;50.364;8.958;2023-05-14T06:20:27;3.33;;;3.07;;
17228;SDS011;8731;50.364;8.958;2023-05-14T06:24:50;4.40;;;3.00;;
17228;SDS011;8731;50.364;8.958;2023-05-14T06:29:12;4.40;;;3.03;;
17228;SDS011;8731;50.364;8.958;2023-05-14T06:33:35;4.77;;;3.40;;
17228;SDS011;8731;50.364;8.958;2023-05-14T06:37:59;3.70;;;2.90;;
17228;SDS011;8731;50.364;8.958;2023-05-14T06:42:22;5.07;;;2.90;;
17228;SDS011;8731;50.364;8.958;2023-05-14T06:46:45;3.60;;;2.93;;
17228;SDS011;8731;50.364;8.958;2023-05-14T06:51:07;3.43;;;3.00;;
17228;SDS011;8731;50.364;8.958;2023-05-14T06:55:31;4.73;;;3.00;;
17228;SDS011;8731;50.364;8.958;2023-05-14T06:59:53;3.63;;;2.83;;
17228;SDS011;8731;50.364;8.958;2023-05-14T07:04:16;2.53;;;2.33;;
17228;SDS011;8731;50.364;8.958;2023-05-14T07:08:39;2.80;;;2.47;;
17228;SDS011;8731;50.364;8.958;2023-05-14T07:13:02;2.83;;;2.40;;
17228;SDS011;8731;50.364;8.958;2023-05-14T07:17:25;2.83;;;2.50;;
17228;SDS011;8731;50.364;8.958;2023-05-14T07:21:47;3.87;;;2.27;;
17228;SDS011;8731;50.364;8.958;2023-05-14T07:26:10;4.37;;;2.40;;
17228;SDS011;8731;50.364;8.958;2023-05-14T07:30:34;4.23;;;2.03;;
17228;SDS011;8731;50.364;8.958;2023-05-14T07:34:57;2.57;;;2.27;;
17228;SDS011;8731;50.364;8.958;2023-05-14T07:39:19;3.13;;;1.90;;
17228;SDS011;8731;50.364;8.958;2023-05-14T07:43:42;2.80;;;2.20;;
17228;SDS011;8731;50.364;8.958;2023-05-14T07:48:06;2.37;;;2.17;;
17228;SDS011;8731;50.364;8.958;2023-05-14T07:52:29;2.30;;;2.10;;
17228;SDS011;8731;50.364;8.958;2023-05-14T07:56:51;2.40;;;2.07;;
17228;SDS011;8731;50.364;8.958;2023-05-14T08:01:14;2.00;;;1.90;;
17228;SDS011;8731;50.364;8.958;2023-05-14T08:05:37;2.03;;;1.83;;
17228;SDS011;8731;50.364;8.958;2023-05-14T08:10:00;4.70;;;2.23;;
17228;SDS011;8731;50.364;8.958;2023-05-14T08:14:22;2.27;;;2.00;;
17228;SDS011;8731;50.364;8.958;2023-05-14T08:18:45;3.07;;;2.20;;
17228;SDS011;8731;50.364;8.958;2023-05-14T08:23:09;2.70;;;2.13;;
17228;SDS011;8731;50.364;8.958;2023-05-14T08:27:31;2.83;;;2.13;;
17228;SDS011;8731;50.364;8.958;2023-05-14T08:31:53;2.33;;;1.93;;
17228;SDS011;8731;50.364;8.958;2023-05-14T08:36:16;3.27;;;2.07;;
17228;SDS011;8731;50.364;8.958;2023-05-14T08:40:40;2.90;;;2.00;;
17228;SDS011;8731;50.364;8.958;2023-05-14T08:45:02;2.83;;;1.80;;
17228;SDS011;8731;50.364;8.958;2023-05-14T08:49:36;2.30;;;2.10;;
17228;SDS011;8731;50.364;8.958;2023-05-14T08:54:08;2.00;;;1.80;;
17228;SDS011;8731;50.364;8.958;2023-05-14T08:58:40;1.90;;;1.80;;
17228;SDS011;8731;50.364;8.958;2023-05-14T09:03:03;1.90;;;1.70;;
17228;SDS011;8731;50.364;8.958;2023-05-14T09:07:28;2.47;;;1.90;;
17228;SDS011;8731;50.364;8.958;2023-05-14T09:11:51;2.10;;;2.00;;
17228;SDS011;8731;50.364;8.958;2023-05-14T09:16:15;2.53;;;2.23;;
17228;SDS011;8731;50.364;8.958;2023-05-14T09:20:40;3.00;;;2.00;;
17228;SDS011;8731;50.364;8.958;2023-05-14T09:25:03;2.37;;;2.13;;
17228;SDS011;8731;50.364;8.958;2023-05-14T09:29:28;2.23;;;1.70;;
17228;SDS011;8731;50.364;8.958;2023-05-14T09:33:52;2.30;;;2.10;;
17228;SDS011;8731;50.364;8.958;2023-05-14T09:38:15;2.30;;;2.10;;
17228;SDS011;8731;50.364;8.958;2023-05-14T09:42:37;5.53;;;2.33;;
17228;SDS011;8731;50.364;8.958;2023-05-14T09:47:00;3.53;;;1.97;;
17228;SDS011;8731;50.364;8.958;2023-05-14T09:51:24;1.70;;;1.60;;
17228;SDS011;8731;50.364;8.958;2023-05-14T09:55:50;2.57;;;2.00;;
17228;SDS011;8731;50.364;8.958;2023-05-14T10:00:13;2.57;;;1.80;;
17228;SDS011;8731;50.364;8.958;2023-05-14T10:04:36;4.20;;;2.37;;
17228;SDS011;8731;50.364;8.958;2023-05-14T10:09:01;3.63;;;2.57;;
17228;SDS011;8731;50.364;8.958;2023-05-14T10:13:29;1.90;;;1.80;;
17228;SDS011;8731;50.364;8.958;2023-05-14T10:17:59;6.63;;;2.40;;
17228;SDS011;8731;50.364;8.958;2023-05-14T10:22:36;4.80;;;2.20;;
17228;SDS011;8731;50.364;8.958;2023-05-14T10:27:00;3.33;;;1.90;;
17228;SDS011;8731;50.364;8.958;2023-05-14T10:31:23;4.00;;;2.40;;
17228;SDS011;8731;50.364;8.958;2023-05-14T10:36:09;3.03;;;1.83;;
17228;SDS011;8731;50.364;8.958;2023-05-14T10:40:31;3.00;;;2.20;;
17228;SDS011;8731;50.364;8.958;2023-05-14T10:44:56;2.60;;;2.10;;
17228;SDS011;8731;50.364;8.958;2023-05-14T10:49:20;3.00;;;1.80;;
17228;SDS011;8731;50.364;8.958;2023-05-14T10:53:43;4.20;;;2.23;;
17228;SDS011;8731;50.364;8.958;2023-05-14T10:58:05;3.37;;;1.97;;
17228;SDS011;8731;50.364;8.958;2023-05-14T11:02:32;3.17;;;1.93;;
17228;SDS011;8731;50.364;8.958;2023-05-14T11:06:56;2.13;;;1.80;;
17228;SDS011;8731;50.364;8.958;2023-05-14T11:11:20;2.30;;;2.10;;
17228;SDS011;8731;50.364;8.958;2023-05-14T11:15:45;2.37;;;2.17;;
17228;SDS011;8731;50.364;8.958;2023-05-14T11:20:10;2.00;;;1.80;;
17228;SDS011;8731;50.364;8.958;2023-05-14T11:24:33;4.07;;;2.10;;
17228;SDS011;8731;50.364;8.958;2023-05-14T11:28:56;1.70;;;1.60;;
17228;SDS011;8731;50.364;8.958;2023-05-14T11:33:18;2.53;;;1.97;;
17228;SDS011;8731;50.364;8.958;2023-05-14T11:37:47;2.23;;;2.00;;
17228;SDS011;8731;50.364;8.958;2023-05-14T11:42:12;2.87;;;2.60;;
17228;SDS011;8731;50.364;8.958;2023-05-14T11:46:36;2.53;;;1.80;;
17228;SDS011;8731;50.364;8.958;2023-05-14T11:50:58;2.63;;;1.90;;
17228;SDS011;8731;50.364;8.958;2023-05-14T11:55:22;2.10;;;1.90;;
17228;SDS011;8731;50.364;8.958;2023-05-14T11:59:45;1.90;;;1.73;;
17228;SDS011;8731;50.364;8.958;2023-05-14T12:04:09;1.90;;;1.80;;
17228;SDS011;8731;50.364;8.958;2023-05-14T12:08:31;3.20;;;1.80;;
17228;SDS011;8731;50.364;8.958;2023-05-14T12:12:55;2.63;;;1.90;;
17228;SDS011;8731;50.364;8.958;2023-05-14T12:17:18;1.90;;;1.50;;
17228;SDS011;8731;50.364;8.958;2023-05-14T12:21:42;2.20;;;2.00;;
17228;SDS011;8731;50.364;8.958;2023-05-14T12:26:07;2.10;;;1.60;;
17228;SDS011;8731;50.364;8.958;2023-05-14T12:30:37;2.00;;;1.80;;
17228;SDS011;8731;50.364;8.958;2023-05-14T12:35:00;2.20;;;1.73;;
17228;SDS011;8731;50.364;8.958;2023-05-14T12:39:22;1.70;;;1.60;;
17228;SDS011;8731;50.364;8.958;2023-05-14T12:43:46;2.07;;;1.60;;
17228;SDS011;8731;50.364;8.958;2023-05-14T12:48:10;1.83;;;1.60;;
17228;SDS011;8731;50.364;8.958;2023-05-14T12:52:33;1.20;;;1.10;;
17228;SDS011;8731;50.364;8.958;2023-05-14T12:56:55;3.40;;;2.03;;
17228;SDS011;8731;50.364;8.958;2023-05-14T13:01:18;1.90;;;1.70;;
17228;SDS011;8731;50.364;8.958;2023-05-14T13:05:42;1.93;;;1.80;;
17228;SDS011;8731;50.364;8.958;2023-05-14T13:10:04;2.53;;;1.63;;
17228;SDS011;8731;50.364;8.958;2023-05-14T13:14:28;1.60;;;1.50;;
17228;SDS011;8731;50.364;8.958;2023-05-14T13:18:50;1.50;;;1.40;;
17228;SDS011;8731;50.364;8.958;2023-05-14T13:23:14;1.67;;;1.57;;
17228;SDS011;8731;50.364;8.958;2023-05-14T13:27:36;2.30;;;1.60;;
17228;SDS011;8731;50.364;8.958;2023-05-14T13:31:59;3.00;;;1.50;;
17228;SDS011;8731;50.364;8.958;2023-05-14T13:36:21;1.60;;;1.50;;
17228;SDS011;8731;50.364;8.958;2023-05-14T13:40:44;1.43;;;1.33;;
17228;SDS011;8731;50.364;8.958;2023-05-14T13:45:07;1.70;;;1.40;;
17228;SDS011;8731;50.364;8.958;2023-05-14T13:49:30;1.93;;;1.53;;
17228;SDS011;8731;50.364;8.958;2023-05-14T13:53:53;1.93;;;1.50;;
17228;SDS011;8731;50.364;8.958;2023-05-14T13:58:16;1.67;;;1.50;;
17228;SDS011;8731;50.364;8.958;2023-05-14T14:02:39;2.20;;;1.60;;
17228;SDS011;8731;50.364;8.958;2023-05-14T14:07:01;1.50;;;1.40;;
17228;SDS011;8731;50.364;8.958;2023-05-14T14:11:24;2.00;;;1.80;;
17228;SDS011;8731;50.364;8.958;2023-05-14T14:15:48;1.53;;;1.20;;
17228;SDS011;8731;50.364;8.958;2023-05-14T14:20:11;1.20;;;1.10;;
17228;SDS011;8731;50.364;8.958;2023-05-14T14:24:33;1.90;;;1.30;;
17228;SDS011;8731;50.364;8.958;2023-05-14T14:28:56;2.40;;;1.13;;
17228;SDS011;8731;50.364;8.958;2023-05-14T14:33:20;1.70;;;1.13;;
17228;SDS011;8731;50.364;8.958;2023-05-14T14:37:42;1.20;;;1.10;;
17228;SDS011;8731;50.364;8.958;2023-05-14T14:42:08;1.87;;;1.30;;
17228;SDS011;8731;50.364;8.958;2023-05-14T14:46:30;2.53;;;1.60;;
17228;SDS011;8731;50.364;8.958;2023-05-14T14:50:54;2.23;;;1.37;;
17228;SDS011;8731;50.364;8.958;2023-05-14T14:55:17;1.90;;;1.37;;
17228;SDS011;8731;50.364;8.958;2023-05-14T14:59:39;1.63;;;1.50;;
17228;SDS011;8731;50.364;8.958;2023-05-14T15:04:02;3.33;;;1.40;;
17228;SDS011;8731;50.364;8.958;2023-05-14T15:08:26;1.40;;;1.20;;
17228;SDS011;8731;50.364;8.958;2023-05-14T15:12:49;1.67;;;1.40;;
17228;SDS011;8731;50.364;8.958;2023-05-14T15:17:11;1.27;;;1.10;;
17228;SDS011;8731;50.364;8.958;2023-05-14T15:21:34;1.30;;;1.20;;
17228;SDS011;8731;50.364;8.958;2023-05-14T15:25:57;1.40;;;1.30;;
17228;SDS011;8731;50.364;8.958;2023-05-14T15:30:20;2.60;;;1.20;;
17228;SDS011;8731;50.364;8.958;2023-05-14T15:34:42;1.80;;;1.50;;
17228;SDS011;8731;50.364;8.958;2023-05-14T15:39:04;1.83;;;1.23;;
17228;SDS011;8731;50.364;8.958;2023-05-14T15:43:30;2.93;;;1.53;;
17228;SDS011;8731;50.364;8.958;2023-05-14T15:47:53;1.67;;;1.57;;
17228;SDS011;8731;50.364;8.958;2023-05-14T15:52:15;1.33;;;1.23;;
17228;SDS011;8731;50.364;8.958;2023-05-14T15:56:37;2.37;;;1.20;;
17228;SDS011;8731;50.364;8.958;2023-05-14T16:01:01;1.60;;;1.20;;
17228;SDS011;8731;50.364;8.958;2023-05-14T16:05:23;1.90;;;1.40;;
17228;SDS011;8731;50.364;8.958;2023-05-14T16:09:46;2.17;;;1.10;;
17228;SDS011;8731;50.364;8.958;2023-05-14T16:14:08;1.30;;;1.20;;
17228;SDS011;8731;50.364;8.958;2023-05-14T16:18:32;1.30;;;1.20;;
17228;SDS011;8731;50.364;8.958;2023-05-14T16:22:54;1.40;;;1.30;;
17228;SDS011;8731;50.364;8.958;2023-05-14T16:27:17;1.90;;;1.10;;
17228;SDS011;8731;50.364;8.958;2023-05-14T16:31:39;1.67;;;1.10;;
17228;SDS011;8731;50.364;8.958;2023-05-14T16:36:03;1.40;;;1.30;;
17228;SDS011;8731;50.364;8.958;2023-05-14T16:40:26;1.70;;;1.10;;
17228;SDS011;8731;50.364;8.958;2023-05-14T16:44:48;2.27;;;1.57;;
17228;SDS011;8731;50.364;8.958;2023-05-14T16:49:10;1.90;;;1.40;;
17228;SDS011;8731;50.364;8.958;2023-05-14T16:53:34;1.30;;;1.20;;
17228;SDS011;8731;50.364;8.958;2023-05-14T16:57:56;1.63;;;1.47;;
17228;SDS011;8731;50.364;8.958;2023-05-14T17:02:19;4.40;;;1.40;;
17228;SDS011;8731;50.364;8.958;2023-05-14T17:06:41;1.60;;;1.50;;
17228;SDS011;8731;50.364;8.958;2023-05-14T17:11:04;4.43;;;2.10;;
17228;SDS011;8731;50.364;8.958;2023-05-14T17:15:27;2.60;;;1.90;;
17228;SDS011;8731;50.364;8.958;2023-05-14T17:19:49;1.70;;;1.60;;
17228;SDS011;8731;50.364;8.958;2023-05-14T17:24:12;2.27;;;1.70;;
17228;SDS011;8731;50.364;8.958;2023-05-14T17:28:35;3.47;;;1.80;;
17228;SDS011;8731;50.364;8.958;2023-05-14T17:32:58;1.83;;;1.67;;
17228;SDS011;8731;50.364;8.958;2023-05-14T17:37:20;3.63;;;1.70;;
17228;SDS011;8731;50.364;8.958;2023-05-14T17:41:43;1.63;;;1.37;;
17228;SDS011;8731;50.364;8.958;2023-05-14T17:46:07;2.50;;;1.80;;
17228;SDS011;8731;50.364;8.958;2023-05-14T17:50:29;2.13;;;1.60;;
17228;SDS011;8731;50.364;8.958;2023-05-14T17:54:51;5.10;;;1.70;;
17228;SDS011;8731;50.364;8.958;2023-05-14T17:59:14;2.20;;;1.97;;
17228;SDS011;8731;50.364;8.958;2023-05-14T18:03:38;1.70;;;1.60;;
17228;SDS011;8731;50.364;8.958;2023-05-14T18:08:01;3.30;;;1.77;;
17228;SDS011;8731;50.364;8.958;2023-05-14T18:12:23;3.03;;;1.77;;
17228;SDS011;8731;50.364;8.958;2023-05-14T18:16:46;6.33;;;1.77;;
17228;SDS011;8731;50.364;8.958;2023-05-14T18:21:10;3.00;;;1.27;;
17228;SDS011;8731;50.364;8.958;2023-05-14T18:25:32;2.73;;;1.67;;
17228;SDS011;8731;50.364;8.958;2023-05-14T18:29:55;1.50;;;1.40;;
17228;SDS011;8731;50.364;8.958;2023-05-14T18:34:17;1.80;;;1.60;;
17228;SDS011;8731;50.364;8.958;2023-05-14T18:38:41;3.17;;;1.40;;
17228;SDS011;8731;50.364;8.958;2023-05-14T18:43:03;3.03;;;1.60;;
17228;SDS011;8731;50.364;8.958;2023-05-14T18:47:25;1.90;;;1.30;;
17228;SDS011;8731;50.364;8.958;2023-05-14T18:51:48;1.43;;;1.20;;
17228;SDS011;8731;50.364;8.958;2023-05-14T18:56:12;5.80;;;1.57;;
17228;SDS011;8731;50.364;8.958;2023-05-14T19:00:34;1.77;;;1.27;;
17228;SDS011;8731;50.364;8.958;2023-05-14T19:04:57;1.60;;;1.50;;
17228;SDS011;8731;50.364;8.958;2023-05-14T19:09:19;3.23;;;1.47;;
17228;SDS011;8731;50.364;8.958;2023-05-14T19:13:42;1.57;;;1.10;;
17228;SDS011;8731;50.364;8.958;2023-05-14T19:18:06;2.20;;;1.53;;
17228;SDS011;8731;50.364;8.958;2023-05-14T19:22:29;2.37;;;1.50;;
17228;SDS011;8731;50.364;8.958;2023-05-14T19:26:52;1.83;;;1.63;;
17228;SDS011;8731;50.364;8.958;2023-05-14T19:31:16;2.17;;;1.70;;
17228;SDS011;8731;50.364;8.958;2023-05-14T19:35:38;1.83;;;1.73;;
17228;SDS011;8731;50.364;8.958;2023-05-14T19:40:00;1.80;;;1.53;;
17228;SDS011;8731;50.364;8.958;2023-05-14T19:44:23;1.97;;;1.50;;
17228;SDS011;8731;50.364;8.958;2023-05-14T19:48:47;2.50;;;2.03;;
17228;SDS011;8731;50.364;8.958;2023-05-14T19:53:09;1.90;;;1.80;;
17228;SDS011;8731;50.364;8.958;2023-05-14T19:57:32;3.47;;;2.40;;
17228;SDS011;8731;50.364;8.958;2023-05-14T20:01:54;3.20;;;2.10;;
17228;SDS011;8731;50.364;8.958;2023-05-14T20:06:18;2.33;;;1.80;;
17228;SDS011;8731;50.364;8.958;2023-05-14T20:10:40;2.43;;;2.23;;
17228;SDS011;8731;50.364;8.958;2023-05-14T20:15:04;3.40;;;2.20;;
17228;SDS011;8731;50.364;8.958;2023-05-14T20:19:27;3.47;;;2.17;;
17228;SDS011;8731;50.364;8.958;2023-05-14T20:23:51;2.83;;;2.00;;
17228;SDS011;8731;50.364;8.958;2023-05-14T20:28:13;4.20;;;2.23;;
17228;SDS011;8731;50.364;8.958;2023-05-14T20:32:36;5.10;;;2.20;;
17228;SDS011;8731;50.364;8.958;2023-05-14T20:36:58;3.63;;;2.13;;
17228;SDS011;8731;50.364;8.958;2023-05-14T20:41:22;2.30;;;2.10;;
17228;SDS011;8731;50.364;8.958;2023-05-14T20:45:45;2.00;;;1.90;;
17228;SDS011;8731;50.364;8.958;2023-05-14T20:50:07;4.30;;;1.97;;
17228;SDS011;8731;50.364;8.958;2023-05-14T20:54:30;4.37;;;1.70;;
17228;SDS011;8731;50.364;8.958;2023-05-14T20:58:54;3.13;;;2.00;;
17228;SDS011;8731;50.364;8.958;2023-05-14T21:03:16;4.37;;;2.80;;
17228;SDS011;8731;50.364;8.958;2023-05-14T21:07:39;3.43;;;2.37;;
17228;SDS011;8731;50.364;8.958;2023-05-14T21:12:01;3.63;;;2.33;;
17228;SDS011;8731;50.364;8.958;2023-05-14T21:16:26;2.00;;;1.90;;
17228;SDS011;8731;50.364;8.958;2023-05-14T21:20:48;2.13;;;1.70;;
17228;SDS011;8731;50.364;8.958;2023-05-14T21:25:10;4.00;;;2.50;;
17228;SDS011;8731;50.364;8.958;2023-05-14T21:29:32;4.03;;;2.30;;
17228;SDS011;8731;50.364;8.958;2023-05-14T21:33:56;4.23;;;2.30;;
17228;SDS011;8731;50.364;8.958;2023-05-14T21:38:19;3.50;;;2.50;;
17228;SDS011;8731;50.364;8.958;2023-05-14T21:42:42;2.27;;;2.03;;
17228;SDS011;8731;50.364;8.958;2023-05-14T21:47:04;3.47;;;2.33;;
17228;SDS011;8731;50.364;8.958;2023-05-14T21:51:28;2.23;;;2.00;;
17228;SDS011;8731;50.364;8.958;2023-05-14T21:55:51;2.40;;;2.20;;
17228;SDS011;8731;50.364;8.958;2023-05-14T22:00:15;3.20;;;2.90;;
17228;SDS011;8731;50.364;8.958;2023-05-14T22:04:42;3.57;;;2.70;;
17228;SDS011;8731;50.364;8.958;2023-05-14T22:09:06;5.73;;;2.50;;
17228;SDS011;8731;50.364;8.958;2023-05-14T22:13:30;2.83;;;2.30;;
17228;SDS011;8731;50.364;8.958;2023-05-14T22:17:54;2.30;;;2.13;;
17228;SDS011;8731;50.364;8.958;2023-05-14T22:22:16;3.87;;;2.13;;
17228;SDS011;8731;50.364;8.958;2023-05-14T22:26:40;4.40;;;2.57;;
17228;SDS011;8731;50.364;8.958;2023-05-14T22:31:02;2.30;;;2.10;;
17228;SDS011;8731;50.364;8.958;2023-05-14T22:35:25;5.27;;;2.57;;
17228;SDS011;8731;50.364;8.958;2023-05-14T22:39:47;3.87;;;2.30;;
17228;SDS011;8731;50.364;8.958;2023-05-14T22:44:11;5.67;;;2.83;;
17228;SDS011;8731;50.364;8.958;2023-05-14T22:48:34;3.40;;;2.70;;
17228;SDS011;8731;50.364;8.958;2023-05-14T22:52:56;2.87;;;2.60;;
17228;SDS011;8731;50.364;8.958;2023-05-14T22:57:19;3.80;;;2.80;;
17228;SDS011;8731;50.364;8.958;2023-05-14T23:01:43;3.43;;;3.13;;
17228;SDS011;8731;50.364;8.958;2023-05-14T23:06:05;3.10;;;2.80;;
17228;SDS011;8731;50.364;8.958;2023-05-14T23:10:28;3.90;;;2.83;;
17228;SDS011;8731;50.364;8.958;2023-05-14T23:14:50;3.37;;;2.67;;
17228;SDS011;8731;50.364;8.958;2023-05-14T23:19:14;2.70;;;2.43;;
17228;SDS011;8731;50.364;8.958;2023-05-14T23:23:37;3.50;;;3.17;;
17228;SDS011;8731;50.364;8.958;2023-05-14T23:27:59;3.40;;;2.53;;
17228;SDS011;8731;50.364;8.958;2023-05-14T23:32:22;4.87;;;3.07;;
17228;SDS011;8731;50.364;8.958;2023-05-14T23:36:46;6.00;;;3.20;;
17228;SDS011;8731;50.364;8.958;2023-05-14T23:41:08;3.20;;;2.90;;
17228;SDS011;8731;50.364;8.958;2023-05-14T23:45:31;4.40;;;3.27;;
17228;SDS011;8731;50.364;8.958;2023-05-14T23:49:53;5.03;;;3.10;;
17228;SDS011;8731;50.364;8.958;2023-05-14T23:54:17;3.10;;;2.80;;
17228;SDS011;8731;50.364;8.958;2023-05-14T23:58:40;4.73;;;3.23;;
